createdAt,value
2022-10-04T00:01:50.550Z,3.70
2022-10-04T00:04:24.442Z,3.30
2022-10-04T00:06:58.325Z,2.97
2022-10-04T00:09:32.320Z,3.30
2022-10-04T00:12:01.845Z,3.17
2022-10-04T00:14:33.447Z,3.10
2022-10-04T00:17:10.947Z,3.00
2022-10-04T00:19:47.987Z,3.20
2022-10-04T00:22:23.804Z,3.80
2022-10-04T00:25:18.449Z,4.00
2022-10-04T00:28:28.576Z,4.03
2022-10-04T00:31:24.669Z,3.90
2022-10-04T00:33:58.050Z,3.70
2022-10-04T00:36:39.730Z,3.20
2022-10-04T00:39:39.801Z,3.50
2022-10-04T00:42:41.969Z,3.43
2022-10-04T00:45:20.273Z,3.00
2022-10-04T00:48:31.764Z,2.97
2022-10-04T00:51:07.972Z,2.83
2022-10-04T00:53:45.981Z,3.20
2022-10-04T00:56:19.814Z,2.90
2022-10-04T00:59:13.003Z,2.93
2022-10-04T01:01:41.165Z,3.20
2022-10-04T01:04:24.898Z,3.10
2022-10-04T01:06:54.993Z,3.13
2022-10-04T01:09:23.648Z,2.77
2022-10-04T01:12:00.899Z,2.70
2022-10-04T01:14:40.958Z,2.50
2022-10-04T01:17:10.100Z,2.80
2022-10-04T01:19:41.355Z,2.43
2022-10-04T01:22:19.184Z,2.47
2022-10-04T01:24:48.471Z,2.50
2022-10-04T01:27:35.699Z,2.10
2022-10-04T01:30:07.595Z,2.63
2022-10-04T01:32:36.741Z,2.40
2022-10-04T01:35:04.971Z,2.20
2022-10-04T01:37:33.741Z,2.23
2022-10-04T01:40:03.413Z,2.30
2022-10-04T01:42:37.823Z,2.47
2022-10-04T01:45:11.816Z,2.40
2022-10-04T01:47:45.368Z,2.20
2022-10-04T01:50:19.053Z,2.30
2022-10-04T01:52:50.071Z,2.20
2022-10-04T01:55:24.862Z,2.40
2022-10-04T01:57:58.839Z,2.20
2022-10-04T02:00:41.027Z,2.20
2022-10-04T02:03:15.563Z,2.30
2022-10-04T02:05:50.404Z,2.60
2022-10-04T02:08:23.543Z,2.40
2022-10-04T02:10:54.901Z,2.50
2022-10-04T02:13:26.060Z,2.10
2022-10-04T02:15:54.294Z,2.30
2022-10-04T02:18:24.892Z,2.27
2022-10-04T02:20:55.050Z,2.30
2022-10-04T02:23:24.418Z,2.03
2022-10-04T02:25:53.655Z,2.20
2022-10-04T02:28:21.652Z,2.23
2022-10-04T02:31:06.406Z,2.30
2022-10-04T02:33:34.914Z,2.20
2022-10-04T02:36:03.138Z,2.30
2022-10-04T02:38:36.688Z,2.53
2022-10-04T02:41:12.580Z,2.10
2022-10-04T02:43:47.334Z,2.33
2022-10-04T02:46:19.613Z,2.10
2022-10-04T02:48:49.531Z,2.07
2022-10-04T02:51:22.620Z,2.10
2022-10-04T02:54:04.120Z,2.10
2022-10-04T02:56:34.677Z,2.10
2022-10-04T02:59:04.160Z,2.03
2022-10-04T03:01:46.416Z,2.00
2022-10-04T03:04:15.848Z,2.17
2022-10-04T03:06:46.200Z,2.07
2022-10-04T03:09:16.612Z,2.20
2022-10-04T03:11:46.492Z,2.00
2022-10-04T03:14:18.357Z,1.70
2022-10-04T03:16:48.091Z,2.30
2022-10-04T03:19:17.722Z,2.33
2022-10-04T03:21:48.766Z,2.33
2022-10-04T03:24:20.630Z,2.30
2022-10-04T03:26:53.699Z,2.03
2022-10-04T03:29:25.000Z,2.00
2022-10-04T03:31:56.134Z,2.23
2022-10-04T03:34:26.525Z,1.80
2022-10-04T03:36:58.669Z,2.10
2022-10-04T03:39:32.602Z,2.17
2022-10-04T03:42:05.955Z,2.20
2022-10-04T03:44:34.191Z,1.90
2022-10-04T03:47:02.553Z,2.20
2022-10-04T03:49:34.715Z,2.47
2022-10-04T03:52:04.734Z,2.20
2022-10-04T03:54:33.725Z,2.30
2022-10-04T03:57:03.708Z,2.47
2022-10-04T03:59:31.621Z,2.60
2022-10-04T04:02:12.664Z,2.40
2022-10-04T04:04:48.153Z,2.23
2022-10-04T04:07:21.382Z,2.37
2022-10-04T04:09:54.201Z,2.30
2022-10-04T04:12:27.114Z,2.27
2022-10-04T04:14:55.584Z,2.17
2022-10-04T04:17:37.563Z,2.20
2022-10-04T04:20:11.717Z,2.37
2022-10-04T04:22:42.229Z,2.40
2022-10-04T04:25:16.491Z,2.37
2022-10-04T04:27:49.351Z,2.20
2022-10-04T04:30:19.332Z,2.30
2022-10-04T04:32:52.698Z,2.30
2022-10-04T04:35:26.349Z,2.27
2022-10-04T04:38:14.231Z,2.30
2022-10-04T04:40:42.341Z,2.17
2022-10-04T04:43:18.054Z,1.93
2022-10-04T04:46:03.043Z,2.27
2022-10-04T04:48:38.110Z,2.17
2022-10-04T04:51:06.667Z,1.90
2022-10-04T04:53:34.625Z,1.97
2022-10-04T04:56:05.186Z,2.07
2022-10-04T04:58:37.544Z,2.40
2022-10-04T05:01:10.272Z,2.30
2022-10-04T05:03:38.197Z,2.10
2022-10-04T05:06:07.415Z,2.60
2022-10-04T05:08:41.015Z,2.13
2022-10-04T05:11:16.504Z,2.90
2022-10-04T05:13:51.704Z,2.57
2022-10-04T05:16:23.505Z,2.20
2022-10-04T05:18:57.370Z,2.30
2022-10-04T05:21:29.487Z,2.00
2022-10-04T05:23:58.503Z,3.23
2022-10-04T05:26:29.981Z,3.07
2022-10-04T05:29:03.228Z,3.03
2022-10-04T05:31:42.442Z,2.70
2022-10-04T05:34:23.041Z,2.57
2022-10-04T05:37:11.166Z,2.37
2022-10-04T05:39:44.787Z,2.53
2022-10-04T05:42:21.541Z,2.40
2022-10-04T05:44:53.979Z,2.10
2022-10-04T05:47:24.238Z,2.43
2022-10-04T05:49:55.484Z,2.20
2022-10-04T05:52:30.642Z,2.50
2022-10-04T05:55:19.227Z,2.60
2022-10-04T05:57:59.554Z,2.20
2022-10-04T06:00:41.465Z,2.50
2022-10-04T06:03:25.409Z,2.60
2022-10-04T06:05:56.582Z,2.80
2022-10-04T06:08:35.781Z,2.63
2022-10-04T06:11:11.926Z,2.50
2022-10-04T06:14:15.444Z,2.80
2022-10-04T06:17:08.434Z,2.60
2022-10-04T06:19:56.397Z,3.10
2022-10-04T06:22:26.826Z,2.90
2022-10-04T06:25:01.561Z,2.90
2022-10-04T06:27:36.803Z,3.10
2022-10-04T06:30:07.640Z,3.87
2022-10-04T06:33:07.281Z,3.20
2022-10-04T06:36:01.881Z,3.20
2022-10-04T06:39:06.472Z,3.20
2022-10-04T06:41:50.076Z,3.50
2022-10-04T06:44:46.242Z,3.93
2022-10-04T06:47:27.143Z,3.47
2022-10-04T06:50:06.529Z,3.67
2022-10-04T06:52:49.922Z,3.83
2022-10-04T06:55:42.114Z,3.70
2022-10-04T06:58:36.994Z,4.17
2022-10-04T07:01:23.815Z,3.13
2022-10-04T07:03:57.165Z,3.47
2022-10-04T07:06:32.386Z,3.50
2022-10-04T07:09:05.469Z,3.03
2022-10-04T07:11:43.903Z,3.27
2022-10-04T07:14:16.981Z,3.70
2022-10-04T07:16:49.621Z,4.00
2022-10-04T07:19:36.138Z,3.73
2022-10-04T07:22:17.167Z,3.43
2022-10-04T07:25:14.816Z,3.93
2022-10-04T07:28:13.885Z,3.90
2022-10-04T07:30:47.152Z,3.57
2022-10-04T07:33:19.049Z,3.90
2022-10-04T07:35:50.512Z,3.50
2022-10-04T07:38:27.050Z,3.73
2022-10-04T07:41:11.989Z,3.40
2022-10-04T07:43:50.733Z,3.93
2022-10-04T07:46:38.504Z,3.77
2022-10-04T07:49:12.408Z,3.47
2022-10-04T07:51:47.321Z,3.60
2022-10-04T07:54:25.405Z,3.80
2022-10-04T07:57:00.854Z,3.87
2022-10-04T07:59:41.174Z,3.50
2022-10-04T08:02:27.702Z,3.47
2022-10-04T08:05:09.132Z,3.93
2022-10-04T08:07:52.077Z,4.07
2022-10-04T08:10:27.687Z,4.10
2022-10-04T08:13:06.918Z,4.27
2022-10-04T08:15:38.726Z,3.67
2022-10-04T08:18:22.286Z,3.63
2022-10-04T08:20:56.369Z,3.60
2022-10-04T08:23:57.147Z,3.17
2022-10-04T08:26:42.370Z,3.13
2022-10-04T08:29:45.934Z,3.33
2022-10-04T08:32:28.218Z,3.30
2022-10-04T08:35:20.402Z,2.90
2022-10-04T08:38:02.257Z,3.57
2022-10-04T08:41:19.067Z,3.10
2022-10-04T08:44:25.258Z,2.90
2022-10-04T08:47:32.092Z,2.57
2022-10-04T08:53:22.685Z,2.87
2022-10-04T08:56:10.158Z,2.73
2022-10-04T08:59:15.771Z,2.93
2022-10-04T09:02:00.148Z,2.70
2022-10-04T09:05:03.412Z,2.80
2022-10-04T09:08:04.162Z,2.80
2022-10-04T09:10:57.315Z,2.50
2022-10-04T09:13:37.439Z,2.70
2022-10-04T09:16:17.117Z,2.67
2022-10-04T09:19:00.384Z,2.53
2022-10-04T09:21:38.515Z,2.73
2022-10-04T09:24:26.540Z,2.70
2022-10-04T09:27:00.436Z,2.77
2022-10-04T09:29:49.131Z,2.70
2022-10-04T09:32:59.667Z,2.90
2022-10-04T09:35:46.776Z,3.93
2022-10-04T09:39:11.454Z,2.93
2022-10-04T09:42:02.188Z,2.87
2022-10-04T09:44:57.004Z,2.80
2022-10-04T09:47:45.956Z,2.80
2022-10-04T09:50:53.766Z,2.97
2022-10-04T09:53:35.364Z,3.20
2022-10-04T09:56:28.176Z,3.10
2022-10-04T09:59:34.248Z,2.83
2022-10-04T10:02:36.525Z,2.90
2022-10-04T10:05:24.687Z,2.80
2022-10-04T10:08:01.441Z,3.93
2022-10-04T10:10:58.501Z,2.83
2022-10-04T10:13:45.058Z,3.80
2022-10-04T10:16:43.195Z,2.60
2022-10-04T10:19:39.090Z,2.80
2022-10-04T10:22:30.524Z,2.67
2022-10-04T10:25:14.069Z,2.47
2022-10-04T10:28:05.466Z,2.73
2022-10-04T10:30:51.077Z,2.67
2022-10-04T10:34:07.776Z,2.47
2022-10-04T10:37:00.435Z,2.40
2022-10-04T10:40:08.993Z,2.47
2022-10-04T10:42:52.022Z,2.37
2022-10-04T10:45:45.613Z,2.20
2022-10-04T10:48:18.427Z,2.27
2022-10-04T10:51:03.447Z,2.13
2022-10-04T10:54:11.964Z,2.27
2022-10-04T10:57:00.935Z,2.40
2022-10-04T11:00:12.311Z,2.40
2022-10-04T11:03:15.716Z,2.70
2022-10-04T11:06:30.348Z,2.20
2022-10-04T11:09:32.745Z,2.23
2022-10-04T11:12:40.008Z,2.37
2022-10-04T11:15:40.749Z,2.70
2022-10-04T11:18:26.574Z,2.50
2022-10-04T11:21:29.403Z,2.60
2022-10-04T11:24:44.529Z,2.50
2022-10-04T11:27:20.597Z,2.47
2022-10-04T11:30:11.425Z,2.33
2022-10-04T11:33:18.992Z,2.40
2022-10-04T11:36:19.055Z,3.40
2022-10-04T11:39:04.706Z,2.50
2022-10-04T11:41:51.212Z,2.53
2022-10-04T11:44:49.359Z,2.20
2022-10-04T11:47:32.676Z,2.33
2022-10-04T11:50:26.302Z,2.20
2022-10-04T11:53:42.586Z,2.57
2022-10-04T11:56:47.367Z,2.20
2022-10-04T11:59:27.554Z,2.47
2022-10-04T12:02:32.242Z,2.00
2022-10-04T12:05:54.050Z,2.13
2022-10-04T12:08:30.022Z,1.90
2022-10-04T12:11:49.194Z,1.90
2022-10-04T12:14:32.631Z,1.77
2022-10-04T12:17:30.962Z,1.70
2022-10-04T12:20:28.998Z,1.53
2022-10-04T12:23:27.366Z,1.70
2022-10-04T12:26:22.234Z,1.83
2022-10-04T12:29:14.169Z,1.47
2022-10-04T12:31:47.044Z,2.00
2022-10-04T12:34:21.369Z,2.03
2022-10-04T12:37:13.728Z,1.90
2022-10-04T12:40:00.779Z,1.80
2022-10-04T12:42:36.928Z,2.20
2022-10-04T12:45:39.186Z,2.00
2022-10-04T12:48:28.903Z,1.93
2022-10-04T12:51:08.124Z,2.20
2022-10-04T12:53:54.507Z,1.93
2022-10-04T12:56:47.122Z,2.07
2022-10-04T12:59:33.439Z,1.90
2022-10-04T13:02:14.073Z,2.00
2022-10-04T13:04:49.955Z,2.20
2022-10-04T13:07:39.371Z,2.00
2022-10-04T13:10:51.426Z,2.10
2022-10-04T13:13:59.632Z,1.97
2022-10-04T13:19:40.308Z,1.77
2022-10-04T13:22:51.322Z,1.93
2022-10-04T13:25:25.820Z,1.60
2022-10-04T13:28:01.279Z,1.63
2022-10-04T13:30:38.588Z,2.10
2022-10-04T13:33:16.801Z,2.00
2022-10-04T13:35:54.358Z,1.60
2022-10-04T13:38:45.091Z,1.57
2022-10-04T13:41:25.684Z,1.73
2022-10-04T13:44:13.341Z,1.60
2022-10-04T13:46:54.897Z,1.50
2022-10-04T13:49:34.648Z,1.60
2022-10-04T13:52:33.984Z,1.60
2022-10-04T13:55:42.201Z,1.60
2022-10-04T13:58:20.780Z,1.90
2022-10-04T14:01:19.536Z,1.70
2022-10-04T14:04:00.523Z,1.80
2022-10-04T14:07:06.917Z,1.67
2022-10-04T14:09:51.962Z,1.60
2022-10-04T14:12:53.113Z,1.63
2022-10-04T14:15:59.456Z,1.73
2022-10-04T14:19:07.040Z,1.83
2022-10-04T14:21:55.316Z,2.20
2022-10-04T14:25:05.383Z,1.90
2022-10-04T14:28:00.732Z,1.80
2022-10-04T14:30:38.161Z,1.67
2022-10-04T14:33:33.247Z,1.90
2022-10-04T14:36:36.487Z,1.90
2022-10-04T14:39:27.871Z,2.23
2022-10-04T14:42:25.212Z,1.90
2022-10-04T14:45:20.867Z,1.93
2022-10-04T14:48:19.852Z,1.83
2022-10-04T14:51:04.441Z,1.77
2022-10-04T14:53:38.596Z,1.97
2022-10-04T14:56:26.255Z,2.10
2022-10-04T14:59:06.302Z,1.70
2022-10-04T15:01:37.508Z,1.73
2022-10-04T15:04:23.199Z,2.10
2022-10-04T15:06:55.296Z,1.70
2022-10-04T15:09:59.024Z,2.10
2022-10-04T15:15:56.559Z,1.60
2022-10-04T15:18:37.833Z,1.50
2022-10-04T15:21:21.863Z,2.00
2022-10-04T15:23:56.060Z,1.83
2022-10-04T15:26:54.188Z,1.90
2022-10-04T15:29:30.071Z,2.00
2022-10-04T15:32:08.094Z,1.90
2022-10-04T15:34:46.463Z,2.10
2022-10-04T15:37:25.556Z,2.00
2022-10-04T15:40:22.832Z,1.93
2022-10-04T15:43:06.514Z,1.90
2022-10-04T15:45:55.634Z,2.07
2022-10-04T15:48:35.548Z,1.80
2022-10-04T15:51:15.387Z,1.87
2022-10-04T15:53:56.015Z,1.70
2022-10-04T15:56:34.158Z,2.23
2022-10-04T15:59:30.942Z,2.20
2022-10-04T16:02:24.050Z,1.90
2022-10-04T16:05:04.404Z,2.03
2022-10-04T16:07:42.957Z,2.30
2022-10-04T16:10:20.167Z,1.87
2022-10-04T16:13:14.313Z,2.17
2022-10-04T16:15:48.075Z,2.43
2022-10-04T16:18:36.779Z,2.10
2022-10-04T16:21:16.108Z,2.30
2022-10-04T16:23:46.273Z,2.00
2022-10-04T16:26:34.835Z,2.47
2022-10-04T16:29:18.288Z,2.63
2022-10-04T16:31:54.215Z,2.30
2022-10-04T16:34:48.102Z,2.30
2022-10-04T16:37:40.173Z,1.93
2022-10-04T16:40:27.078Z,2.27
2022-10-04T16:43:01.209Z,2.20
2022-10-04T16:45:44.778Z,2.20
2022-10-04T16:48:34.109Z,6.77
2022-10-04T16:51:23.373Z,5.43
2022-10-04T16:53:59.438Z,3.07
2022-10-04T16:56:29.712Z,3.30
2022-10-04T16:59:00.554Z,2.73
2022-10-04T17:01:58.135Z,2.47
2022-10-04T17:04:45.623Z,2.67
2022-10-04T17:07:28.109Z,3.13
2022-10-04T17:10:03.368Z,3.10
2022-10-04T17:12:39.983Z,3.00
2022-10-04T17:15:31.665Z,2.83
2022-10-04T17:18:13.199Z,3.00
2022-10-04T17:20:52.278Z,2.60
2022-10-04T17:23:44.397Z,3.13
2022-10-04T17:26:27.384Z,2.60
2022-10-04T17:28:58.110Z,3.20
2022-10-04T17:31:34.815Z,3.10
2022-10-04T17:34:19.103Z,3.20
2022-10-04T17:36:51.125Z,3.37
2022-10-04T17:39:32.853Z,3.10
2022-10-04T17:42:16.191Z,3.30
2022-10-04T17:45:01.262Z,3.37
2022-10-04T17:47:51.118Z,2.90
2022-10-04T17:50:43.497Z,3.30
2022-10-04T17:53:37.909Z,3.63
2022-10-04T17:56:09.396Z,3.80
2022-10-04T17:58:44.597Z,3.90
2022-10-04T18:01:17.518Z,3.20
2022-10-04T18:03:52.407Z,3.37
2022-10-04T18:06:33.563Z,3.27
2022-10-04T18:09:05.009Z,3.60
2022-10-04T18:11:47.176Z,3.00
2022-10-04T18:14:38.737Z,3.37
2022-10-04T18:17:09.011Z,3.40
2022-10-04T18:19:44.826Z,3.60
2022-10-04T18:22:15.560Z,3.40
2022-10-04T18:24:44.867Z,3.50
2022-10-04T18:27:21.719Z,3.27
2022-10-04T18:30:13.370Z,7.47
2022-10-04T18:32:47.583Z,10.07
2022-10-04T18:35:26.619Z,5.27
2022-10-04T18:37:56.664Z,5.07
2022-10-04T18:40:27.103Z,4.53
2022-10-04T18:42:58.532Z,4.13
2022-10-04T18:45:28.491Z,4.33
2022-10-04T18:48:03.037Z,4.63
2022-10-04T18:50:38.783Z,4.07
2022-10-04T18:53:38.170Z,4.27
2022-10-04T18:56:09.218Z,4.60
2022-10-04T18:59:20.260Z,5.40
2022-10-04T19:02:04.115Z,5.27
2022-10-04T19:04:47.786Z,5.60
2022-10-04T19:07:18.310Z,5.20
2022-10-04T19:10:30.121Z,5.90
2022-10-04T19:13:22.691Z,6.47
2022-10-04T19:16:14.586Z,6.57
2022-10-04T19:18:57.840Z,6.30
2022-10-04T19:21:38.691Z,6.47
2022-10-04T19:24:30.263Z,6.47
2022-10-04T19:27:05.736Z,6.03
2022-10-04T19:29:45.577Z,5.73
2022-10-04T19:32:29.143Z,6.27
2022-10-04T19:35:10.435Z,5.50
2022-10-04T19:37:47.281Z,5.83
2022-10-04T19:40:24.748Z,5.43
2022-10-04T19:43:01.375Z,5.37
2022-10-04T19:45:39.019Z,5.17
2022-10-04T19:48:23.340Z,5.70
2022-10-04T19:51:00.531Z,5.93
2022-10-04T19:53:38.240Z,6.10
2022-10-04T19:56:15.485Z,5.63
2022-10-04T19:58:45.266Z,6.07
2022-10-04T20:01:17.497Z,5.80
2022-10-04T20:03:46.839Z,6.30
2022-10-04T20:06:21.852Z,6.60
2022-10-04T20:08:56.746Z,5.73
2022-10-04T20:11:50.568Z,5.87
2022-10-04T20:14:52.142Z,6.27
2022-10-04T20:17:33.886Z,5.90
2022-10-04T20:20:03.078Z,6.10
2022-10-04T20:22:54.394Z,5.97
2022-10-04T20:25:59.638Z,5.57
2022-10-04T20:28:44.428Z,5.70
2022-10-04T20:31:28.773Z,5.73
2022-10-04T20:33:56.776Z,5.83
2022-10-04T20:36:56.936Z,5.50
2022-10-04T20:40:01.366Z,5.57
2022-10-04T20:42:35.196Z,5.40
2022-10-04T20:45:21.746Z,5.43
2022-10-04T20:47:50.875Z,5.07
2022-10-04T20:50:34.868Z,6.10
2022-10-04T20:53:07.947Z,5.47
2022-10-04T20:55:40.056Z,5.47
2022-10-04T20:58:25.439Z,5.70
2022-10-04T21:00:57.203Z,5.83
2022-10-04T21:03:25.747Z,5.53
2022-10-04T21:06:02.360Z,5.23
2022-10-04T21:08:31.688Z,6.13
2022-10-04T21:11:20.205Z,5.63
2022-10-04T21:14:01.997Z,4.97
2022-10-04T21:16:40.899Z,5.40
2022-10-04T21:19:45.204Z,5.20
2022-10-04T21:22:37.543Z,5.40
2022-10-04T21:25:40.971Z,5.67
2022-10-04T21:28:33.712Z,5.20
2022-10-04T21:31:02.481Z,4.80
2022-10-04T21:33:33.244Z,5.53
2022-10-04T21:36:01.399Z,5.53
2022-10-04T21:38:29.536Z,5.43
2022-10-04T21:40:57.528Z,5.70
2022-10-04T21:43:27.032Z,5.37
2022-10-04T21:46:01.719Z,5.30
2022-10-04T21:48:29.766Z,5.60
2022-10-04T21:50:57.565Z,4.50
2022-10-04T21:53:25.461Z,4.47
2022-10-04T21:55:53.194Z,4.40
2022-10-04T21:58:21.010Z,4.53
2022-10-04T22:00:50.507Z,4.40
2022-10-04T22:03:18.366Z,4.37
2022-10-04T22:05:46.160Z,4.03
2022-10-04T22:08:13.919Z,4.20
2022-10-04T22:10:43.134Z,4.30
2022-10-04T22:13:11.003Z,4.43
2022-10-04T22:15:38.821Z,4.37
2022-10-04T22:18:08.333Z,4.50
2022-10-04T22:20:37.928Z,4.27
2022-10-04T22:23:11.669Z,3.77
2022-10-04T22:25:41.305Z,4.67
2022-10-04T22:28:19.031Z,5.00
2022-10-04T22:30:47.297Z,5.23
2022-10-04T22:33:28.738Z,4.47
2022-10-04T22:35:57.633Z,4.50
2022-10-04T22:38:25.539Z,4.87
2022-10-04T22:40:54.206Z,4.47
2022-10-04T22:43:21.967Z,4.20
2022-10-04T22:45:49.761Z,4.30
2022-10-04T22:48:17.632Z,4.50
2022-10-04T22:50:46.751Z,4.23
2022-10-04T22:53:20.181Z,4.40
2022-10-04T22:55:49.158Z,3.90
2022-10-04T22:58:17.260Z,4.07
2022-10-04T23:00:46.109Z,3.73
2022-10-04T23:03:26.061Z,3.57
2022-10-04T23:05:55.257Z,3.77
2022-10-04T23:08:23.012Z,3.67
2022-10-04T23:10:54.581Z,3.67
2022-10-04T23:13:24.813Z,3.20
2022-10-04T23:15:53.734Z,3.23
2022-10-04T23:18:21.635Z,3.33
2022-10-04T23:20:52.768Z,3.60
2022-10-04T23:23:22.166Z,3.40
2022-10-04T23:25:50.573Z,3.20
2022-10-04T23:28:20.007Z,3.30
2022-10-04T23:30:58.716Z,3.50
2022-10-04T23:33:26.544Z,3.30
2022-10-04T23:35:55.767Z,3.20
2022-10-04T23:38:26.400Z,3.30
2022-10-04T23:40:54.272Z,3.30
2022-10-04T23:43:25.625Z,2.93
2022-10-04T23:45:54.423Z,3.13
2022-10-04T23:48:25.129Z,3.30
2022-10-04T23:50:55.250Z,2.97
2022-10-04T23:53:28.557Z,3.00
2022-10-04T23:55:57.312Z,2.90
2022-10-04T23:58:30.971Z,3.37
